Celandine — ONDN — position and weather

sailwx.info

Track history (hours):
 
Tides and Currents Weather Stations Pressure Air Temp Water Temp Dewpoint Dewpoint Depression Visibility Wind Speed Wind Dir Waves Ship Positions

Celandine

Last reported at 2014-Aug-20 16:17 UTC. Time now 2014-Aug-20 16:40 UTC.
Position N 51°21' E 003°13'.

Length 162 m; draft 5.4 m.

Type: Ship (hazmat cat A). MMSI: 205476000.

Date/timePositionNaut miles runAvg speedWind from/ knotsBaromVisibWave heightAir tempDewpointWater temp
2014-Aug-20 16:17N 51°21' E 003°13'0 0.0
2014-Aug-20 15:29N 51°21' E 003°13'0 0.0
2014-Aug-20 14:17N 51°21' E 003°13'0 0.0
2014-Aug-20 13:33N 51°21' E 003°13'10 9.6
2014-Aug-20 12:33N 51°26' E 002°60'1616.3
2014-Aug-20 11:33N 51°35' E 002°38'1716.6
2014-Aug-20 10:33N 51°40' E 002°13'1716.6
2014-Aug-20 09:34N 51°33' E 001°48'1716.9
2014-Aug-20 08:33N 51°29' E 001°22'1615.8
2014-Aug-20 07:33N 51°29' E 000°57'1615.6
2014-Aug-20 06:34N 51°30' E 000°32'10 9.6
2014-Aug-20 05:34N 51°27' E 000°17'2 1.5
2014-Aug-20 04:32N 51°28' E 000°15'0 0.0
2014-Aug-20 03:32N 51°28' E 000°15'0 0.0
2014-Aug-20 02:32N 51°28' E 000°15'0 0.0
2014-Aug-20 01:32N 51°28' E 000°15'0 0.0
2014-Aug-20 00:32N 51°28' E 000°15'0 0.0
2014-Aug-19 23:32N 51°28' E 000°15'4 4.2
2014-Aug-19 22:33N 51°27' E 000°21'1211.5
2014-Aug-19 21:34N 51°30' E 000°39'1414.1
2014-Aug-19 20:33N 51°30' E 001°02'1515.0
2014-Aug-19 19:34N 51°29' E 001°25'1615.7
2014-Aug-19 18:33N 51°29' E 001°51'1615.3
2014-Aug-19 17:31N 51°29' E 002°16'1515.3
2014-Aug-19 16:33N 51°29' E 002°40'1514.7
2014-Aug-19 15:31N 51°25' E 003°03'7 7.5
2014-Aug-19 14:33N 51°21' E 003°13'0 0.0
2014-Aug-19 13:30N 51°21' E 003°13'0 0.0
2014-Aug-19 12:30N 51°21' E 003°13'0 0.0
2014-Aug-19 11:27N 51°21' E 003°13'0 0.0
2014-Aug-19 10:33N 51°21' E 003°13'0 0.0
2014-Aug-19 09:33N 51°21' E 003°13'0 0.0
2014-Aug-19 08:33N 51°21' E 003°13'0 0.0
2014-Aug-19 07:33N 51°21' E 003°13'0 0.0
2014-Aug-19 06:33N 51°21' E 003°13'0 0.0
2014-Aug-19 05:33N 51°21' E 003°13'0 0.4
2014-Aug-19 04:34N 51°21' E 003°13'1212.3
2014-Aug-19 03:33N 51°21' E 002°53'8 8.2
2014-Aug-19 02:33N 51°21' E 002°40'7 7.1
2014-Aug-19 01:33N 51°20' E 002°28'2 2.1
2014-Aug-19 00:29N 51°20' E 002°25'1212.9
2014-Aug-18 23:33N 51°13' E 002°09'1313.1
2014-Aug-18 22:33N 51°07' E 001°50'7 6.5
2014-Aug-18 21:33N 51°02' E 001°56'1412.3
2014-Aug-18 20:27N 51°04' E 002°18'3 2.0
2014-Aug-18 19:10N 51°03' E 002°22'0 0.0
2014-Aug-18 18:31N 51°03' E 002°22'0 0.0
2014-Aug-18 17:19N 51°03' E 002°22'0 0.0
2014-Aug-18 15:25N 51°03' E 002°22'0 0.0
2014-Aug-18 14:25N 51°03' E 002°22'0 0.0
2014-Aug-18 13:25N 51°03' E 002°22'0 0.0
2014-Aug-18 12:07N 51°03' E 002°22'0 0.0
2014-Aug-18 11:31N 51°03' E 002°22'0 0.0
2014-Aug-18 10:31N 51°03' E 002°22'0 0.0
2014-Aug-18 09:22N 51°03' E 002°22'0 0.0
2014-Aug-18 08:28N 51°03' E 002°22'0 0.0
2014-Aug-18 07:25N 51°03' E 002°22'0 0.0
2014-Aug-18 06:31N 51°03' E 002°22'0 0.0
2014-Aug-18 05:28N 51°03' E 002°22'0 0.0
2014-Aug-18 04:19N 51°03' E 002°22'0 0.0
2014-Aug-18 03:19N 51°03' E 002°22'0 0.0
2014-Aug-18 02:07N 51°03' E 002°22'0 0.0
2014-Aug-17 18:31N 51°03' E 002°22'0 0.0
2014-Aug-17 17:31N 51°03' E 002°22'0 0.0
2014-Aug-17 16:31N 51°03' E 002°22'0 0.0
2014-Aug-17 15:31N 51°03' E 002°22'0 0.0
2014-Aug-17 14:16N 51°03' E 002°22'0 0.0
2014-Aug-17 13:31N 51°03' E 002°22'0 0.0
2014-Aug-17 12:25N 51°03' E 002°22'0 0.0
2014-Aug-17 11:07N 51°03' E 002°22'0 0.0
2014-Aug-17 10:19N 51°03' E 002°22'0 0.1
2014-Aug-17 09:21N 51°03' E 002°22'0 0.0
2014-Aug-17 08:25N 51°03' E 002°22'0 0.0
2014-Aug-17 07:31N 51°03' E 002°22'0 0.0
2014-Aug-17 06:19N 51°03' E 002°22'0 0.0
2014-Aug-17 05:18N 51°03' E 002°22'0 0.0
2014-Aug-17 04:21N 51°03' E 002°22'0 0.0
2014-Aug-17 03:30N 51°03' E 002°22'0 0.0
2014-Aug-17 02:15N 51°03' E 002°22'0 0.0
2014-Aug-16 20:27N 51°03' E 002°22'0 0.0
2014-Aug-16 18:33N 51°03' E 002°22'0 0.0
2014-Aug-16 15:15N 51°03' E 002°22'0 0.0
2014-Aug-16 14:27N 51°03' E 002°22'0 0.0
2014-Aug-16 13:30N 51°03' E 002°22'0 0.0
2014-Aug-16 12:18N 51°03' E 002°22'0 0.0
2014-Aug-16 11:32N 51°03' E 002°22'0 0.0
2014-Aug-16 10:32N 51°03' E 002°22'0 0.0
2014-Aug-16 09:32N 51°03' E 002°22'0 0.0
2014-Aug-16 06:33N 51°03' E 002°22'0 0.0
2014-Aug-16 05:27N 51°03' E 002°22'0 0.0
2014-Aug-16 04:03N 51°03' E 002°22'0 0.0
2014-Aug-16 03:33N 51°03' E 002°22'0 0.0
2014-Aug-16 02:33N 51°03' E 002°22'0 0.0
2014-Aug-16 01:27N 51°03' E 002°22'0 0.0
2014-Aug-16 00:33N 51°03' E 002°22'0 0.0
2014-Aug-15 23:03N 51°03' E 002°22'0 0.0
2014-Aug-15 22:33N 51°03' E 002°22'0 0.0
2014-Aug-15 21:21N 51°03' E 002°22'0 0.0
2014-Aug-15 19:33N 51°03' E 002°22'0 0.0
2014-Aug-15 18:33N 51°03' E 002°22'0 0.0
2014-Aug-15 17:30N 51°03' E 002°22'0 0.0
2014-Aug-15 16:24N 51°03' E 002°22'0 0.0
2014-Aug-15 15:24N 51°03' E 002°22'0 0.0
2014-Aug-15 14:30N 51°03' E 002°22'0 0.0
2014-Aug-15 13:33N 51°03' E 002°22'0 0.0
2014-Aug-15 11:30N 51°03' E 002°22'0 0.0
2014-Aug-15 10:27N 51°03' E 002°22'0 0.0
2014-Aug-15 08:30N 51°03' E 002°22'0 0.0
2014-Aug-15 07:15N 51°03' E 002°22'0 0.0
2014-Aug-15 06:24N 51°03' E 002°22'0 0.0
2014-Aug-15 04:30N 51°03' E 002°22'0 0.0
2014-Aug-15 03:19N 51°03' E 002°22'0 0.0
2014-Aug-15 02:33N 51°03' E 002°22'0 0.0
2014-Aug-14 23:12N 51°03' E 002°22'0 0.0
2014-Aug-14 22:33N 51°03' E 002°22'0 0.0
2014-Aug-14 21:27N 51°03' E 002°22'0 0.0
2014-Aug-14 20:12N 51°03' E 002°22'0 0.0
2014-Aug-14 18:18N 51°03' E 002°22'0 0.0
2014-Aug-14 16:30N 51°03' E 002°22'0 0.0
2014-Aug-14 15:27N 51°03' E 002°22'0 0.0
2014-Aug-14 14:27N 51°03' E 002°22'0 0.0
2014-Aug-14 13:27N 51°03' E 002°22'0 0.0
2014-Aug-14 12:33N 51°03' E 002°22'0 0.0
2014-Aug-14 11:21N 51°03' E 002°22'0 0.0
2014-Aug-14 10:21N 51°03' E 002°22'0 0.0
2014-Aug-14 08:30N 51°03' E 002°22'0 0.0
2014-Aug-14 07:27N 51°03' E 002°22'0 0.0
2014-Aug-14 06:12N 51°03' E 002°22'0 0.0
2014-Aug-14 05:12N 51°03' E 002°22'0 0.0
2014-Aug-14 04:30N 51°03' E 002°22'0 0.0
2014-Aug-14 03:27N 51°03' E 002°22'0 0.0
2014-Aug-14 02:27N 51°03' E 002°22'0 0.0
2014-Aug-14 01:30N 51°03' E 002°22'0 0.0
2014-Aug-14 00:12N 51°03' E 002°22'0 0.0
2014-Aug-13 23:27N 51°03' E 002°22'0 0.0
2014-Aug-13 22:33N 51°03' E 002°22'0 0.0
2014-Aug-13 19:21N 51°03' E 002°22'0 0.0
2014-Aug-13 18:24N 51°03' E 002°22'0 0.0
2014-Aug-13 17:30N 51°03' E 002°22'0 0.0
2014-Aug-13 16:33N 51°03' E 002°22'0 0.0
2014-Aug-13 15:27N 51°03' E 002°22'0 0.0
2014-Aug-13 14:30N 51°03' E 002°22'0 0.0
2014-Aug-13 13:33N 51°03' E 002°22'0 0.0
2014-Aug-13 12:33N 51°03' E 002°22'0 0.0
2014-Aug-13 11:33N 51°03' E 002°22'0 0.0
2014-Aug-13 10:33N 51°03' E 002°22'0 0.0
2014-Aug-13 09:18N 51°03' E 002°22'0 0.0
2014-Aug-13 02:21N 51°03' E 002°22'0 0.0
2014-Aug-13 01:33N 51°03' E 002°22'0 0.0
2014-Aug-13 00:06N 51°03' E 002°22'0 0.0
2014-Aug-12 18:27N 51°03' E 002°22'0 0.0
2014-Aug-12 16:24N 51°03' E 002°22'0 0.0
2014-Aug-12 15:30N 51°03' E 002°22'0 0.0
2014-Aug-12 14:06N 51°03' E 002°22'0 0.0
2014-Aug-12 13:30N 51°03' E 002°22'0 0.0
2014-Aug-12 12:27N 51°03' E 002°22'0 0.0
2014-Aug-12 11:30N 51°03' E 002°22'0 0.0
2014-Aug-12 08:33N 51°03' E 002°22'0 0.0
2014-Aug-12 07:18N 51°03' E 002°22'0 0.0
2014-Aug-12 06:15N 51°03' E 002°22'0 0.0
2014-Aug-12 04:24N 51°03' E 002°22'0 0.0
2014-Aug-12 01:09N 51°03' E 002°22'0 0.0
2014-Aug-12 00:18N 51°03' E 002°22'0 0.0
2014-Aug-11 22:15N 51°03' E 002°22'0 0.0
2014-Aug-11 21:15N 51°03' E 002°22'0 0.0
2014-Aug-11 19:09N 51°03' E 002°22'0 0.0
2014-Aug-11 18:30N 51°03' E 002°22'0 0.0
2014-Aug-11 15:30N 51°03' E 002°22'0 0.0
2014-Aug-11 14:24N 51°03' E 002°22'0 0.0
2014-Aug-11 12:30N 51°03' E 002°22'0 0.0
2014-Aug-11 11:27N 51°03' E 002°22'0 0.0
2014-Aug-11 10:18N 51°03' E 002°22'0 0.0
2014-Aug-11 09:18N 51°03' E 002°22'0 0.0
2014-Aug-11 08:27N 51°03' E 002°22'0 0.0
2014-Aug-11 07:27N 51°03' E 002°22'0 0.0
2014-Aug-11 06:24N 51°03' E 002°22'0 0.0
2014-Aug-11 05:30N 51°03' E 002°22'0 0.0
2014-Aug-11 04:27N 51°03' E 002°22'0 0.0
2014-Aug-11 03:06N 51°03' E 002°22'0 0.0
2014-Aug-11 02:33N 51°03' E 002°22'0 0.0
2014-Aug-11 00:24N 51°03' E 002°22'0 0.0
2014-Aug-10 22:09N 51°03' E 002°22'0 0.0
2014-Aug-10 21:33N 51°03' E 002°22'0 0.0
2014-Aug-10 19:33N 51°03' E 002°22'0 0.0
2014-Aug-10 18:27N 51°03' E 002°22'0 0.0
2014-Aug-10 17:33N 51°03' E 002°22'  
Track history (hours):
 
Tides and Currents Weather Stations Pressure Air Temp Water Temp Dewpoint Dewpoint Depression Visibility Wind Speed Wind Dir Waves Ship Positions

Celandine

Last reported at 2014-Aug-20 16:17 UTC. Time now 2014-Aug-20 16:40 UTC.
Position N 51°21' E 003°13'.

Length 162 m; draft 5.4 m.

Type: Ship (hazmat cat A). MMSI: 205476000.

Date/timePositionNaut miles runAvg speedWind from/ knotsBaromVisibWave heightAir tempDewpointWater temp
2014-Aug-20 16:17N 51°21' E 003°13'0 0.0
2014-Aug-20 15:29N 51°21' E 003°13'0 0.0
2014-Aug-20 14:17N 51°21' E 003°13'0 0.0
2014-Aug-20 13:33N 51°21' E 003°13'10 9.6
2014-Aug-20 12:33N 51°26' E 002°60'1616.3
2014-Aug-20 11:33N 51°35' E 002°38'1716.6
2014-Aug-20 10:33N 51°40' E 002°13'1716.6
2014-Aug-20 09:34N 51°33' E 001°48'1716.9
2014-Aug-20 08:33N 51°29' E 001°22'1615.8
2014-Aug-20 07:33N 51°29' E 000°57'1615.6
2014-Aug-20 06:34N 51°30' E 000°32'10 9.6
2014-Aug-20 05:34N 51°27' E 000°17'2 1.5
2014-Aug-20 04:32N 51°28' E 000°15'0 0.0
2014-Aug-20 03:32N 51°28' E 000°15'0 0.0
2014-Aug-20 02:32N 51°28' E 000°15'0 0.0
2014-Aug-20 01:32N 51°28' E 000°15'0 0.0
2014-Aug-20 00:32N 51°28' E 000°15'0 0.0
2014-Aug-19 23:32N 51°28' E 000°15'4 4.2
2014-Aug-19 22:33N 51°27' E 000°21'1211.5
2014-Aug-19 21:34N 51°30' E 000°39'1414.1
2014-Aug-19 20:33N 51°30' E 001°02'1515.0
2014-Aug-19 19:34N 51°29' E 001°25'1615.7
2014-Aug-19 18:33N 51°29' E 001°51'1615.3
2014-Aug-19 17:31N 51°29' E 002°16'1515.3
2014-Aug-19 16:33N 51°29' E 002°40'1514.7
2014-Aug-19 15:31N 51°25' E 003°03'7 7.5
2014-Aug-19 14:33N 51°21' E 003°13'0 0.0
2014-Aug-19 13:30N 51°21' E 003°13'0 0.0
2014-Aug-19 12:30N 51°21' E 003°13'0 0.0
2014-Aug-19 11:27N 51°21' E 003°13'0 0.0
2014-Aug-19 10:33N 51°21' E 003°13'0 0.0
2014-Aug-19 09:33N 51°21' E 003°13'0 0.0
2014-Aug-19 08:33N 51°21' E 003°13'0 0.0
2014-Aug-19 07:33N 51°21' E 003°13'0 0.0
2014-Aug-19 06:33N 51°21' E 003°13'0 0.0
2014-Aug-19 05:33N 51°21' E 003°13'0 0.4
2014-Aug-19 04:34N 51°21' E 003°13'1212.3
2014-Aug-19 03:33N 51°21' E 002°53'8 8.2
2014-Aug-19 02:33N 51°21' E 002°40'7 7.1
2014-Aug-19 01:33N 51°20' E 002°28'2 2.1
2014-Aug-19 00:29N 51°20' E 002°25'1212.9
2014-Aug-18 23:33N 51°13' E 002°09'1313.1
2014-Aug-18 22:33N 51°07' E 001°50'7 6.5
2014-Aug-18 21:33N 51°02' E 001°56'1412.3
2014-Aug-18 20:27N 51°04' E 002°18'3 2.0
2014-Aug-18 19:10N 51°03' E 002°22'0 0.0
2014-Aug-18 18:31N 51°03' E 002°22'0 0.0
2014-Aug-18 17:19N 51°03' E 002°22'0 0.0
2014-Aug-18 15:25N 51°03' E 002°22'0 0.0
2014-Aug-18 14:25N 51°03' E 002°22'0 0.0
2014-Aug-18 13:25N 51°03' E 002°22'0 0.0
2014-Aug-18 12:07N 51°03' E 002°22'0 0.0
2014-Aug-18 11:31N 51°03' E 002°22'0 0.0
2014-Aug-18 10:31N 51°03' E 002°22'0 0.0
2014-Aug-18 09:22N 51°03' E 002°22'0 0.0
2014-Aug-18 08:28N 51°03' E 002°22'0 0.0
2014-Aug-18 07:25N 51°03' E 002°22'0 0.0
2014-Aug-18 06:31N 51°03' E 002°22'0 0.0
2014-Aug-18 05:28N 51°03' E 002°22'0 0.0
2014-Aug-18 04:19N 51°03' E 002°22'0 0.0
2014-Aug-18 03:19N 51°03' E 002°22'0 0.0
2014-Aug-18 02:07N 51°03' E 002°22'0 0.0
2014-Aug-17 18:31N 51°03' E 002°22'0 0.0
2014-Aug-17 17:31N 51°03' E 002°22'0 0.0
2014-Aug-17 16:31N 51°03' E 002°22'0 0.0
2014-Aug-17 15:31N 51°03' E 002°22'0 0.0
2014-Aug-17 14:16N 51°03' E 002°22'0 0.0
2014-Aug-17 13:31N 51°03' E 002°22'0 0.0
2014-Aug-17 12:25N 51°03' E 002°22'0 0.0
2014-Aug-17 11:07N 51°03' E 002°22'0 0.0
2014-Aug-17 10:19N 51°03' E 002°22'0 0.1
2014-Aug-17 09:21N 51°03' E 002°22'0 0.0
2014-Aug-17 08:25N 51°03' E 002°22'0 0.0
2014-Aug-17 07:31N 51°03' E 002°22'0 0.0
2014-Aug-17 06:19N 51°03' E 002°22'0 0.0
2014-Aug-17 05:18N 51°03' E 002°22'0 0.0
2014-Aug-17 04:21N 51°03' E 002°22'0 0.0
2014-Aug-17 03:30N 51°03' E 002°22'0 0.0
2014-Aug-17 02:15N 51°03' E 002°22'0 0.0
2014-Aug-16 20:27N 51°03' E 002°22'0 0.0
2014-Aug-16 18:33N 51°03' E 002°22'0 0.0
2014-Aug-16 15:15N 51°03' E 002°22'0 0.0
2014-Aug-16 14:27N 51°03' E 002°22'0 0.0
2014-Aug-16 13:30N 51°03' E 002°22'0 0.0
2014-Aug-16 12:18N 51°03' E 002°22'0 0.0
2014-Aug-16 11:32N 51°03' E 002°22'0 0.0
2014-Aug-16 10:32N 51°03' E 002°22'0 0.0
2014-Aug-16 09:32N 51°03' E 002°22'0 0.0
2014-Aug-16 06:33N 51°03' E 002°22'0 0.0
2014-Aug-16 05:27N 51°03' E 002°22'0 0.0
2014-Aug-16 04:03N 51°03' E 002°22'0 0.0
2014-Aug-16 03:33N 51°03' E 002°22'0 0.0
2014-Aug-16 02:33N 51°03' E 002°22'0 0.0
2014-Aug-16 01:27N 51°03' E 002°22'0 0.0
2014-Aug-16 00:33N 51°03' E 002°22'0 0.0
2014-Aug-15 23:03N 51°03' E 002°22'0 0.0
2014-Aug-15 22:33N 51°03' E 002°22'0 0.0
2014-Aug-15 21:21N 51°03' E 002°22'0 0.0
2014-Aug-15 19:33N 51°03' E 002°22'0 0.0
2014-Aug-15 18:33N 51°03' E 002°22'0 0.0
2014-Aug-15 17:30N 51°03' E 002°22'0 0.0
2014-Aug-15 16:24N 51°03' E 002°22'0 0.0
2014-Aug-15 15:24N 51°03' E 002°22'0 0.0
2014-Aug-15 14:30N 51°03' E 002°22'0 0.0
2014-Aug-15 13:33N 51°03' E 002°22'0 0.0
2014-Aug-15 11:30N 51°03' E 002°22'0 0.0
2014-Aug-15 10:27N 51°03' E 002°22'0 0.0
2014-Aug-15 08:30N 51°03' E 002°22'0 0.0
2014-Aug-15 07:15N 51°03' E 002°22'0 0.0
2014-Aug-15 06:24N 51°03' E 002°22'0 0.0
2014-Aug-15 04:30N 51°03' E 002°22'0 0.0
2014-Aug-15 03:19N 51°03' E 002°22'0 0.0
2014-Aug-15 02:33N 51°03' E 002°22'0 0.0
2014-Aug-14 23:12N 51°03' E 002°22'0 0.0
2014-Aug-14 22:33N 51°03' E 002°22'0 0.0
2014-Aug-14 21:27N 51°03' E 002°22'0 0.0
2014-Aug-14 20:12N 51°03' E 002°22'0 0.0
2014-Aug-14 18:18N 51°03' E 002°22'0 0.0
2014-Aug-14 16:30N 51°03' E 002°22'0 0.0
2014-Aug-14 15:27N 51°03' E 002°22'0 0.0
2014-Aug-14 14:27N 51°03' E 002°22'0 0.0
2014-Aug-14 13:27N 51°03' E 002°22'0 0.0
2014-Aug-14 12:33N 51°03' E 002°22'0 0.0
2014-Aug-14 11:21N 51°03' E 002°22'0 0.0
2014-Aug-14 10:21N 51°03' E 002°22'0 0.0
2014-Aug-14 08:30N 51°03' E 002°22'0 0.0
2014-Aug-14 07:27N 51°03' E 002°22'0 0.0
2014-Aug-14 06:12N 51°03' E 002°22'0 0.0
2014-Aug-14 05:12N 51°03' E 002°22'0 0.0
2014-Aug-14 04:30N 51°03' E 002°22'0 0.0
2014-Aug-14 03:27N 51°03' E 002°22'0 0.0
2014-Aug-14 02:27N 51°03' E 002°22'0 0.0
2014-Aug-14 01:30N 51°03' E 002°22'0 0.0
2014-Aug-14 00:12N 51°03' E 002°22'0 0.0
2014-Aug-13 23:27N 51°03' E 002°22'0 0.0
2014-Aug-13 22:33N 51°03' E 002°22'0 0.0
2014-Aug-13 19:21N 51°03' E 002°22'0 0.0
2014-Aug-13 18:24N 51°03' E 002°22'0 0.0
2014-Aug-13 17:30N 51°03' E 002°22'0 0.0
2014-Aug-13 16:33N 51°03' E 002°22'0 0.0
2014-Aug-13 15:27N 51°03' E 002°22'0 0.0
2014-Aug-13 14:30N 51°03' E 002°22'0 0.0
2014-Aug-13 13:33N 51°03' E 002°22'0 0.0
2014-Aug-13 12:33N 51°03' E 002°22'0 0.0
2014-Aug-13 11:33N 51°03' E 002°22'0 0.0
2014-Aug-13 10:33N 51°03' E 002°22'0 0.0
2014-Aug-13 09:18N 51°03' E 002°22'0 0.0
2014-Aug-13 02:21N 51°03' E 002°22'0 0.0
2014-Aug-13 01:33N 51°03' E 002°22'0 0.0
2014-Aug-13 00:06N 51°03' E 002°22'0 0.0
2014-Aug-12 18:27N 51°03' E 002°22'0 0.0
2014-Aug-12 16:24N 51°03' E 002°22'0 0.0
2014-Aug-12 15:30N 51°03' E 002°22'0 0.0
2014-Aug-12 14:06N 51°03' E 002°22'0 0.0
2014-Aug-12 13:30N 51°03' E 002°22'0 0.0
2014-Aug-12 12:27N 51°03' E 002°22'0 0.0
2014-Aug-12 11:30N 51°03' E 002°22'0 0.0
2014-Aug-12 08:33N 51°03' E 002°22'0 0.0
2014-Aug-12 07:18N 51°03' E 002°22'0 0.0
2014-Aug-12 06:15N 51°03' E 002°22'0 0.0
2014-Aug-12 04:24N 51°03' E 002°22'0 0.0
2014-Aug-12 01:09N 51°03' E 002°22'0 0.0
2014-Aug-12 00:18N 51°03' E 002°22'0 0.0
2014-Aug-11 22:15N 51°03' E 002°22'0 0.0
2014-Aug-11 21:15N 51°03' E 002°22'0 0.0
2014-Aug-11 19:09N 51°03' E 002°22'0 0.0
2014-Aug-11 18:30N 51°03' E 002°22'0 0.0
2014-Aug-11 15:30N 51°03' E 002°22'0 0.0
2014-Aug-11 14:24N 51°03' E 002°22'0 0.0
2014-Aug-11 12:30N 51°03' E 002°22'0 0.0
2014-Aug-11 11:27N 51°03' E 002°22'0 0.0
2014-Aug-11 10:18N 51°03' E 002°22'0 0.0
2014-Aug-11 09:18N 51°03' E 002°22'0 0.0
2014-Aug-11 08:27N 51°03' E 002°22'0 0.0
2014-Aug-11 07:27N 51°03' E 002°22'0 0.0
2014-Aug-11 06:24N 51°03' E 002°22'0 0.0
2014-Aug-11 05:30N 51°03' E 002°22'0 0.0
2014-Aug-11 04:27N 51°03' E 002°22'0 0.0
2014-Aug-11 03:06N 51°03' E 002°22'0 0.0
2014-Aug-11 02:33N 51°03' E 002°22'0 0.0
2014-Aug-11 00:24N 51°03' E 002°22'0 0.0
2014-Aug-10 22:09N 51°03' E 002°22'0 0.0
2014-Aug-10 21:33N 51°03' E 002°22'0 0.0
2014-Aug-10 19:33N 51°03' E 002°22'0 0.0
2014-Aug-10 18:27N 51°03' E 002°22'0 0.0
2014-Aug-10 17:33N 51°03' E 002°22'  

Dump ship's entire track history